createdAt,value
2017-03-21T00:01:02.840Z,21.3
2017-03-21T00:02:11.842Z,21.37
2017-03-21T00:03:21.207Z,21.29
2017-03-21T00:04:30.590Z,21.25
2017-03-21T00:05:39.974Z,21.27
2017-03-21T00:06:49.048Z,21.27
2017-03-21T00:07:58.125Z,21.29
2017-03-21T00:09:07.500Z,21.24
2017-03-21T00:10:16.884Z,21.21
2017-03-21T00:11:26.159Z,21.3
2017-03-21T00:12:35.198Z,21.21
2017-03-21T00:13:44.840Z,21.32
2017-03-21T00:14:53.908Z,21.33
2017-03-21T00:16:03.896Z,21.22
2017-03-21T00:17:12.965Z,21.25
2017-03-21T00:18:22.641Z,21.3
2017-03-21T00:19:32.021Z,21.2
2017-03-21T00:20:41.091Z,21.25
2017-03-21T00:21:49.814Z,21.24
2017-03-21T00:22:59.469Z,21.27
2017-03-21T00:24:09.114Z,21.15
2017-03-21T00:25:18.422Z,21.18
2017-03-21T00:26:27.765Z,21.24
2017-03-21T00:27:36.835Z,21.25
2017-03-21T00:28:45.914Z,21.22
2017-03-21T00:29:55.298Z,21.21
2017-03-21T00:31:04.362Z,21.2
2017-03-21T00:32:13.678Z,21.2
2017-03-21T00:33:23.052Z,21.21
2017-03-21T00:34:32.688Z,21.17
2017-03-21T00:35:41.430Z,21.22
2017-03-21T00:36:50.502Z,21.18
2017-03-21T00:38:00.200Z,21.21
2017-03-21T00:39:09.618Z,21.18
2017-03-21T00:40:19.867Z,21.14
2017-03-21T00:41:28.910Z,21.21
2017-03-21T00:42:37.983Z,21.11
2017-03-21T00:43:47.667Z,21.07
2017-03-21T00:44:57.313Z,21.15
2017-03-21T00:46:06.645Z,21.07
2017-03-21T00:47:15.427Z,21.14
2017-03-21T00:48:25.417Z,21.15
2017-03-21T00:49:34.494Z,21.14
2017-03-21T00:50:43.870Z,21.09
2017-03-21T00:51:52.639Z,21.09
2017-03-21T00:53:02.014Z,21.15
2017-03-21T00:54:11.999Z,21.14
2017-03-21T00:55:20.779Z,21.17
2017-03-21T00:56:29.809Z,21.07
2017-03-21T00:57:39.460Z,21.14
2017-03-21T00:58:48.814Z,21.14
2017-03-21T00:59:58.195Z,21.07
2017-03-21T01:01:07.256Z,21.06
2017-03-21T01:02:16.011Z,21.03
2017-03-21T01:03:25.078Z,21.09
2017-03-21T01:04:34.350Z,21.06
2017-03-21T01:05:43.723Z,21.09
2017-03-21T01:06:52.790Z,21.06
2017-03-21T01:08:01.854Z,21.07
2017-03-21T01:09:11.231Z,21.02
2017-03-21T01:10:20.611Z,21.07
2017-03-21T01:11:29.661Z,21.09
2017-03-21T01:12:38.734Z,21.11
2017-03-21T01:13:48.119Z,21.09
2017-03-21T01:14:57.698Z,20.97
2017-03-21T01:16:06.728Z,21.07
2017-03-21T01:17:15.768Z,20.99
2017-03-21T01:18:25.751Z,21.03
2017-03-21T01:19:36.038Z,20.99
2017-03-21T01:20:45.105Z,21.07
2017-03-21T01:21:53.824Z,20.99
2017-03-21T01:23:03.180Z,20.96
2017-03-21T01:24:12.254Z,20.97
2017-03-21T01:25:21.937Z,20.99
2017-03-21T01:26:31.619Z,21
2017-03-21T01:27:40.689Z,20.93
2017-03-21T01:28:50.681Z,20.9
2017-03-21T01:30:00.364Z,21.02
2017-03-21T01:31:09.384Z,20.93
2017-03-21T01:32:18.428Z,20.92
2017-03-21T01:33:27.799Z,20.99
2017-03-21T01:34:36.869Z,20.93
2017-03-21T01:35:45.600Z,20.9
2017-03-21T01:36:54.363Z,20.92
2017-03-21T01:38:03.124Z,20.9
2017-03-21T01:39:12.157Z,20.92
2017-03-21T01:40:21.514Z,20.95
2017-03-21T01:41:30.883Z,20.9
2017-03-21T01:42:39.953Z,20.88
2017-03-21T01:43:49.644Z,20.92
2017-03-21T01:44:59.628Z,20.92
2017-03-21T01:46:08.987Z,20.93
2017-03-21T01:47:18.053Z,20.93
2017-03-21T01:48:27.488Z,20.9
2017-03-21T01:49:37.490Z,20.93
2017-03-21T01:50:46.828Z,20.95
2017-03-21T01:51:55.565Z,20.96
2017-03-21T01:53:05.754Z,20.93
2017-03-21T01:54:16.060Z,20.96
2017-03-21T01:55:24.837Z,20.92
2017-03-21T01:56:33.910Z,20.84
2017-03-21T01:57:43.291Z,20.85
2017-03-21T01:58:52.940Z,20.87
2017-03-21T02:00:02.602Z,20.93
2017-03-21T02:01:11.372Z,20.85
2017-03-21T02:02:20.450Z,20.85
2017-03-21T02:03:30.429Z,20.9
2017-03-21T02:04:40.324Z,20.85
2017-03-21T02:05:49.096Z,20.8
2017-03-21T02:06:58.170Z,20.87
2017-03-21T02:08:07.848Z,20.87
2017-03-21T02:09:17.883Z,20.84
2017-03-21T02:10:27.255Z,20.82
2017-03-21T02:11:36.939Z,20.82
2017-03-21T02:12:46.610Z,20.82
2017-03-21T02:13:56.892Z,20.81
2017-03-21T02:15:06.568Z,20.84
2017-03-21T02:16:15.648Z,20.84
2017-03-21T02:17:24.719Z,20.81
2017-03-21T02:18:34.067Z,20.85
2017-03-21T02:19:43.416Z,20.8
2017-03-21T02:20:52.487Z,20.81
2017-03-21T02:22:01.561Z,20.78
2017-03-21T02:23:10.633Z,20.75
2017-03-21T02:24:20.281Z,20.8
2017-03-21T02:25:29.632Z,20.75
2017-03-21T02:26:38.401Z,20.78
2017-03-21T02:27:47.772Z,20.81
2017-03-21T02:28:57.161Z,20.77
2017-03-21T02:30:06.498Z,20.77
2017-03-21T02:31:15.845Z,20.87
2017-03-21T02:32:24.857Z,20.78
2017-03-21T02:33:34.230Z,20.85
2017-03-21T02:34:43.600Z,20.84
2017-03-21T02:35:52.971Z,20.72
2017-03-21T02:37:01.735Z,20.78
2017-03-21T02:38:11.719Z,20.77
2017-03-21T02:39:21.405Z,20.8
2017-03-21T02:40:31.595Z,20.78
2017-03-21T02:41:41.170Z,20.8
2017-03-21T02:42:50.242Z,20.72
2017-03-21T02:43:59.893Z,20.74
2017-03-21T02:45:08.630Z,20.75
2017-03-21T02:46:18.248Z,20.74
2017-03-21T02:47:27.322Z,20.74
2017-03-21T02:48:36.958Z,20.72
2017-03-21T02:49:45.714Z,20.8
2017-03-21T02:50:55.044Z,20.77
2017-03-21T02:52:04.593Z,20.8
2017-03-21T02:53:13.672Z,20.8
2017-03-21T02:54:23.662Z,20.78
2017-03-21T02:55:33.036Z,20.7
2017-03-21T02:56:41.759Z,20.8
2017-03-21T02:57:51.673Z,20.75
2017-03-21T02:59:01.331Z,20.78
2017-03-21T03:00:10.673Z,20.78
2017-03-21T03:01:20.359Z,20.75
2017-03-21T03:02:29.690Z,20.75
2017-03-21T03:03:38.925Z,20.77
2017-03-21T03:04:48.896Z,20.75
2017-03-21T03:05:58.567Z,20.74
2017-03-21T03:07:07.630Z,20.75
2017-03-21T03:08:17.283Z,20.7
2017-03-21T03:09:27.280Z,20.74
2017-03-21T03:10:36.366Z,20.66
2017-03-21T03:11:45.142Z,20.75
2017-03-21T03:12:54.210Z,20.66
2017-03-21T03:14:04.205Z,20.72
2017-03-21T03:15:13.899Z,20.66
2017-03-21T03:16:23.162Z,20.72
2017-03-21T03:17:32.844Z,20.66
2017-03-21T03:18:43.139Z,20.69
2017-03-21T03:19:52.513Z,20.66
2017-03-21T03:21:01.887Z,20.72
2017-03-21T03:22:10.966Z,20.69
2017-03-21T03:23:20.001Z,20.7
2017-03-21T03:24:29.661Z,20.63
2017-03-21T03:25:39.037Z,20.69
2017-03-21T03:26:48.106Z,20.7
2017-03-21T03:27:57.485Z,20.7
2017-03-21T03:29:07.465Z,20.74
2017-03-21T03:30:16.802Z,20.66
2017-03-21T03:31:25.848Z,20.67
2017-03-21T03:32:35.854Z,20.7
2017-03-21T03:33:45.535Z,20.66
2017-03-21T03:34:54.581Z,20.69
2017-03-21T03:36:03.922Z,20.66
2017-03-21T03:37:13.300Z,20.7
2017-03-21T03:38:22.985Z,20.63
2017-03-21T03:39:32.670Z,20.66
2017-03-21T03:40:48.907Z,20.72
2017-03-21T03:41:58.892Z,20.69
2017-03-21T03:43:08.282Z,20.66
2017-03-21T03:44:18.275Z,20.67
2017-03-21T03:45:27.355Z,20.67
2017-03-21T03:46:37.037Z,20.7
2017-03-21T03:47:46.418Z,20.65
2017-03-21T03:48:55.485Z,20.6
2017-03-21T03:50:04.549Z,20.59
2017-03-21T03:51:13.307Z,20.65
2017-03-21T03:52:22.684Z,20.63
2017-03-21T03:53:31.750Z,20.65
2017-03-21T03:54:40.823Z,20.6
2017-03-21T03:55:50.183Z,20.66
2017-03-21T03:56:59.569Z,20.6
2017-03-21T03:58:08.945Z,20.62
2017-03-21T03:59:18.930Z,20.56
2017-03-21T04:00:28.008Z,20.59
2017-03-21T04:01:36.783Z,20.63
2017-03-21T04:02:46.086Z,20.56
2017-03-21T04:03:56.371Z,20.58
2017-03-21T04:05:05.707Z,20.59
2017-03-21T04:06:14.443Z,20.65
2017-03-21T04:07:23.513Z,20.58
2017-03-21T04:08:32.886Z,20.6
2017-03-21T04:09:42.868Z,20.6
2017-03-21T04:10:52.841Z,20.56
2017-03-21T04:12:01.915Z,20.59
2017-03-21T04:13:11.591Z,20.62
2017-03-21T04:14:21.263Z,20.62
2017-03-21T04:15:30.898Z,20.62
2017-03-21T04:16:39.630Z,20.55
2017-03-21T04:17:49.338Z,20.58
2017-03-21T04:18:59.273Z,20.58
2017-03-21T04:20:08.615Z,20.59
2017-03-21T04:21:17.981Z,20.56
2017-03-21T04:22:27.004Z,20.58
2017-03-21T04:23:36.310Z,20.55
2017-03-21T04:24:45.367Z,20.56
2017-03-21T04:25:54.433Z,20.58
2017-03-21T04:27:03.800Z,20.52
2017-03-21T04:28:13.387Z,20.52
2017-03-21T04:29:22.764Z,20.58
2017-03-21T04:30:32.125Z,20.6
2017-03-21T04:31:41.483Z,20.52
2017-03-21T04:32:50.543Z,20.63
2017-03-21T04:33:59.922Z,20.58
2017-03-21T04:35:09.601Z,20.65
2017-03-21T04:36:18.967Z,20.58
2017-03-21T04:37:27.778Z,20.6
2017-03-21T04:38:36.881Z,20.59
2017-03-21T04:39:45.948Z,20.62
2017-03-21T04:40:55.618Z,20.59
2017-03-21T04:42:04.680Z,20.62
2017-03-21T04:43:14.057Z,20.56
2017-03-21T04:44:23.465Z,20.63
2017-03-21T04:45:33.138Z,20.63
2017-03-21T04:46:41.875Z,20.58
2017-03-21T04:47:50.939Z,20.62
2017-03-21T04:49:00.302Z,20.5
2017-03-21T04:50:09.078Z,20.55
2017-03-21T04:51:18.750Z,20.56
2017-03-21T04:52:27.817Z,20.6
2017-03-21T04:53:36.881Z,20.55
2017-03-21T04:54:45.956Z,20.48
2017-03-21T04:55:55.316Z,20.55
2017-03-21T04:57:04.342Z,20.59
2017-03-21T04:58:14.499Z,20.59
2017-03-21T04:59:24.489Z,20.65
2017-03-21T05:00:33.857Z,20.58
2017-03-21T05:01:43.236Z,20.5
2017-03-21T05:02:52.003Z,20.63
2017-03-21T05:04:01.688Z,20.65
2017-03-21T05:05:11.062Z,20.62
2017-03-21T05:06:20.126Z,20.65
2017-03-21T05:07:29.186Z,20.6
2017-03-21T05:08:38.551Z,20.62
2017-03-21T05:09:47.615Z,20.69
2017-03-21T05:10:57.295Z,20.65
2017-03-21T05:12:06.642Z,20.67
2017-03-21T05:13:15.979Z,20.6
2017-03-21T05:14:25.312Z,20.67
2017-03-21T05:15:34.651Z,20.66
2017-03-21T05:16:43.406Z,20.69
2017-03-21T05:17:52.479Z,20.65
2017-03-21T05:19:02.467Z,20.65
2017-03-21T05:20:11.832Z,20.74
2017-03-21T05:21:20.905Z,20.63
2017-03-21T05:22:30.170Z,20.62
2017-03-21T05:23:39.805Z,20.72
2017-03-21T05:24:49.752Z,20.72
2017-03-21T05:25:59.725Z,20.74
2017-03-21T05:27:08.789Z,20.65
2017-03-21T05:28:17.518Z,20.7
2017-03-21T05:29:26.868Z,20.74
2017-03-21T05:30:36.201Z,20.77
2017-03-21T05:31:45.238Z,20.84
2017-03-21T05:32:54.005Z,20.77
2017-03-21T05:34:03.719Z,20.84
2017-03-21T05:35:12.802Z,20.77
2017-03-21T05:36:21.568Z,20.8
2017-03-21T05:37:30.329Z,20.77
2017-03-21T05:38:40.565Z,20.82
2017-03-21T05:39:50.222Z,20.8
2017-03-21T05:40:59.904Z,20.84
2017-03-21T05:42:08.971Z,20.84
2017-03-21T05:43:18.343Z,20.87
2017-03-21T05:44:28.062Z,20.85
2017-03-21T05:45:38.046Z,20.96
2017-03-21T05:46:47.415Z,20.9
2017-03-21T05:47:56.639Z,20.96
2017-03-21T05:49:05.688Z,20.93
2017-03-21T05:50:15.093Z,20.92
2017-03-21T05:51:24.952Z,20.95
2017-03-21T05:52:33.686Z,20.88
2017-03-21T05:53:43.360Z,20.93
2017-03-21T05:54:53.305Z,20.88
2017-03-21T05:56:02.650Z,21
2017-03-21T05:57:11.423Z,20.92
2017-03-21T05:58:20.683Z,21.03
2017-03-21T05:59:30.662Z,20.95
2017-03-21T06:00:40.029Z,21.03
2017-03-21T06:01:49.402Z,20.99
2017-03-21T06:02:58.774Z,21.09
2017-03-21T06:04:07.802Z,21.02
2017-03-21T06:05:17.444Z,21.09
2017-03-21T06:06:26.164Z,21.15
2017-03-21T06:07:35.166Z,21.14
2017-03-21T06:08:44.555Z,21.15
2017-03-21T06:09:53.945Z,21.14
2017-03-21T06:11:03.625Z,21.11
2017-03-21T06:12:12.616Z,21.14
2017-03-21T06:13:22.606Z,21.2
2017-03-21T06:14:31.683Z,21.18
2017-03-21T06:15:40.773Z,21.21
2017-03-21T06:16:50.125Z,21.17
2017-03-21T06:17:58.860Z,21.21
2017-03-21T06:19:07.889Z,21.24
2017-03-21T06:20:16.927Z,21.22
2017-03-21T06:21:25.683Z,21.27
2017-03-21T06:22:34.709Z,21.21
2017-03-21T06:23:44.312Z,21.24
2017-03-21T06:24:53.362Z,21.2
2017-03-21T06:26:02.734Z,21.17
2017-03-21T06:27:11.805Z,21.32
2017-03-21T06:28:20.875Z,21.33
2017-03-21T06:29:30.813Z,21.24
2017-03-21T06:30:39.879Z,21.21
2017-03-21T06:31:50.044Z,21.21
2017-03-21T06:32:59.154Z,21.22
2017-03-21T06:34:07.924Z,21.25
2017-03-21T06:35:17.293Z,21.24
2017-03-21T06:36:27.337Z,21.37
2017-03-21T06:37:36.381Z,21.37
2017-03-21T06:38:46.529Z,21.32
2017-03-21T06:39:56.944Z,21.39
2017-03-21T06:41:05.990Z,21.29
2017-03-21T06:42:15.320Z,21.32
2017-03-21T06:43:24.052Z,21.33
2017-03-21T06:44:33.437Z,21.39
2017-03-21T06:45:43.111Z,21.37
2017-03-21T06:46:51.870Z,21.39
2017-03-21T06:48:00.929Z,21.39
2017-03-21T06:49:09.959Z,21.43
2017-03-21T06:50:19.008Z,21.36
2017-03-21T06:51:28.079Z,21.48
2017-03-21T06:52:37.466Z,21.52
2017-03-21T06:53:47.756Z,21.5
2017-03-21T06:54:56.515Z,21.51
2017-03-21T06:56:05.890Z,21.54
2017-03-21T06:57:15.512Z,21.5
2017-03-21T06:58:24.886Z,21.51
2017-03-21T06:59:34.567Z,21.57
2017-03-21T07:00:43.328Z,21.58
2017-03-21T07:01:52.704Z,21.58
2017-03-21T07:03:02.083Z,21.6
2017-03-21T07:04:12.076Z,21.6
2017-03-21T07:05:21.448Z,21.61
2017-03-21T07:06:30.514Z,21.61
2017-03-21T07:07:39.590Z,21.62
2017-03-21T07:08:49.278Z,21.73
2017-03-21T07:09:58.356Z,21.62
2017-03-21T07:11:07.424Z,21.6
2017-03-21T07:12:16.190Z,21.66
2017-03-21T07:13:25.621Z,21.72
2017-03-21T07:14:34.885Z,21.69
2017-03-21T07:15:43.628Z,21.76
2017-03-21T07:16:52.387Z,21.8
2017-03-21T07:18:01.752Z,21.76
2017-03-21T07:19:11.121Z,21.72
2017-03-21T07:20:20.205Z,21.67
2017-03-21T07:21:29.288Z,21.75
2017-03-21T07:22:38.058Z,21.67
2017-03-21T07:23:47.736Z,21.79
2017-03-21T07:24:58.020Z,21.73
2017-03-21T07:26:07.401Z,21.8
2017-03-21T07:27:16.162Z,21.77
2017-03-21T07:28:25.221Z,21.83
2017-03-21T07:29:33.988Z,21.82
2017-03-21T07:30:42.755Z,21.91
2017-03-21T07:31:51.829Z,21.91
2017-03-21T07:33:01.160Z,21.89
2017-03-21T07:34:10.513Z,21.95
2017-03-21T07:35:20.187Z,21.96
2017-03-21T07:36:29.247Z,21.89
2017-03-21T07:37:38.317Z,21.98
2017-03-21T07:38:47.961Z,21.95
2017-03-21T07:39:57.610Z,22.08
2017-03-21T07:41:06.671Z,22.06
2017-03-21T07:42:15.405Z,22.15
2017-03-21T07:43:25.696Z,22.2
2017-03-21T07:44:35.373Z,22.2
2017-03-21T07:45:44.141Z,22.2
2017-03-21T07:46:52.866Z,22.23
2017-03-21T07:48:02.241Z,22.36
2017-03-21T07:49:11.922Z,22.47
2017-03-21T07:50:21.608Z,22.55
2017-03-21T07:51:30.621Z,22.6
2017-03-21T07:52:39.995Z,22.69
2017-03-21T07:53:49.981Z,22.75
2017-03-21T07:54:59.315Z,22.75
2017-03-21T07:56:08.668Z,22.83
2017-03-21T07:57:18.000Z,22.8
2017-03-21T07:58:27.952Z,22.78
2017-03-21T07:59:37.030Z,22.68
2017-03-21T08:00:46.099Z,22.73
2017-03-21T08:01:54.863Z,22.75
2017-03-21T08:03:03.940Z,22.66
2017-03-21T08:04:12.979Z,22.68
2017-03-21T08:05:22.043Z,22.69
2017-03-21T08:06:31.111Z,22.7
2017-03-21T08:07:40.141Z,22.73
2017-03-21T08:08:50.362Z,22.72
2017-03-21T08:10:00.271Z,22.66
2017-03-21T08:11:09.267Z,22.76
2017-03-21T08:12:18.619Z,22.69
2017-03-21T08:13:28.301Z,22.66
2017-03-21T08:14:38.237Z,22.65
2017-03-21T08:15:46.973Z,22.63
2017-03-21T08:16:56.048Z,22.53
2017-03-21T08:18:05.112Z,22.48
2017-03-21T08:19:14.494Z,22.54
2017-03-21T08:20:23.871Z,22.51
2017-03-21T08:21:32.937Z,22.51
2017-03-21T08:22:42.312Z,22.47
2017-03-21T08:23:52.349Z,22.53
2017-03-21T08:25:02.332Z,22.5
2017-03-21T08:26:11.409Z,22.45
2017-03-21T08:27:20.450Z,22.45
2017-03-21T08:28:30.436Z,22.51
2017-03-21T08:29:39.809Z,22.5
2017-03-21T08:30:49.186Z,22.48
2017-03-21T08:31:57.949Z,22.44
2017-03-21T08:33:07.008Z,22.43
2017-03-21T08:34:15.770Z,22.39
2017-03-21T08:35:24.829Z,22.45
2017-03-21T08:36:33.599Z,22.39
2017-03-21T08:37:42.360Z,22.38
2017-03-21T08:38:51.742Z,22.35
2017-03-21T08:40:01.368Z,22.38
2017-03-21T08:41:10.435Z,22.41
2017-03-21T08:42:19.199Z,22.47
2017-03-21T08:43:28.559Z,22.33
2017-03-21T08:44:37.626Z,22.35
2017-03-21T08:45:46.396Z,22.43
2017-03-21T08:46:55.164Z,22.39
2017-03-21T08:48:03.885Z,22.33
2017-03-21T08:49:12.613Z,22.33
2017-03-21T08:50:21.678Z,22.35
2017-03-21T08:51:30.704Z,22.28
2017-03-21T08:52:39.433Z,22.32
2017-03-21T08:53:48.213Z,22.38
2017-03-21T08:54:57.282Z,22.29
2017-03-21T08:56:06.050Z,22.26
2017-03-21T08:57:14.779Z,22.25
2017-03-21T08:58:23.515Z,22.23
2017-03-21T08:59:32.846Z,22.29
2017-03-21T09:00:41.889Z,22.29
2017-03-21T09:01:50.671Z,22.28
2017-03-21T09:02:59.431Z,22.2
2017-03-21T09:04:08.489Z,22.28
2017-03-21T09:05:17.256Z,22.26
2017-03-21T09:06:26.022Z,22.25
2017-03-21T09:07:35.053Z,22.26
2017-03-21T09:08:44.107Z,22.26
2017-03-21T09:09:53.440Z,22.29
2017-03-21T09:11:02.493Z,22.25
2017-03-21T09:12:11.557Z,22.25
2017-03-21T09:13:20.327Z,22.18
2017-03-21T09:14:29.359Z,22.25
2017-03-21T09:15:38.362Z,22.25
2017-03-21T09:16:47.097Z,22.28
2017-03-21T09:17:56.162Z,22.41
2017-03-21T09:19:04.886Z,22.33
2017-03-21T09:20:13.910Z,22.38
2017-03-21T09:21:22.671Z,22.41
2017-03-21T09:22:31.631Z,22.45
2017-03-21T09:23:40.401Z,22.48
2017-03-21T09:24:50.081Z,22.44
2017-03-21T09:25:59.155Z,22.44
2017-03-21T09:27:07.879Z,22.5
2017-03-21T09:28:17.217Z,22.38
2017-03-21T09:29:26.287Z,22.41
2017-03-21T09:30:35.047Z,22.43
2017-03-21T09:31:43.818Z,22.36
2017-03-21T09:32:52.785Z,22.43
2017-03-21T09:34:01.850Z,22.32
2017-03-21T09:35:10.582Z,22.33
2017-03-21T09:36:19.618Z,22.44
2017-03-21T09:37:28.695Z,22.43
2017-03-21T09:38:37.453Z,22.53
2017-03-21T09:39:47.129Z,22.65
2017-03-21T09:40:56.163Z,22.7
2017-03-21T09:42:04.867Z,22.75
2017-03-21T09:43:13.847Z,22.73
2017-03-21T09:44:23.215Z,22.75
2017-03-21T09:45:32.279Z,22.85
2017-03-21T09:46:41.332Z,22.93
2017-03-21T09:47:50.094Z,23.03
2017-03-21T09:48:59.125Z,23.18
2017-03-21T09:50:07.914Z,23.23
2017-03-21T09:51:16.979Z,23.34
2017-03-21T09:52:25.734Z,23.27
2017-03-21T09:53:34.731Z,23.24
2017-03-21T09:54:43.807Z,23.17
2017-03-21T09:55:52.577Z,23.1
2017-03-21T09:57:01.301Z,23.05
2017-03-21T09:58:10.038Z,23.08
2017-03-21T09:59:19.114Z,23.05
2017-03-21T10:00:27.876Z,22.93
2017-03-21T10:01:36.639Z,22.87
2017-03-21T10:02:45.708Z,22.83
2017-03-21T10:03:55.036Z,22.81
2017-03-21T10:05:04.379Z,22.78
2017-03-21T10:06:13.141Z,22.72
2017-03-21T10:07:21.883Z,22.7
2017-03-21T10:08:30.928Z,22.76
2017-03-21T10:09:40.303Z,22.75
2017-03-21T10:10:49.274Z,22.76
2017-03-21T10:11:58.347Z,22.69
2017-03-21T10:13:07.077Z,22.75
2017-03-21T10:14:15.816Z,22.65
2017-03-21T10:15:24.998Z,22.6
2017-03-21T10:16:34.032Z,22.65
2017-03-21T10:17:42.798Z,22.65
2017-03-21T10:18:51.553Z,22.62
2017-03-21T10:20:00.625Z,22.63
2017-03-21T10:21:09.599Z,22.55
2017-03-21T10:22:18.640Z,22.51
2017-03-21T10:23:27.703Z,22.54
2017-03-21T10:24:36.771Z,22.48
2017-03-21T10:25:45.543Z,22.54
2017-03-21T10:26:54.303Z,22.54
2017-03-21T10:28:03.072Z,22.54
2017-03-21T10:29:12.147Z,22.51
2017-03-21T10:30:20.917Z,22.5
2017-03-21T10:31:29.988Z,22.51
2017-03-21T10:32:38.733Z,22.54
2017-03-21T10:33:47.848Z,22.5
2017-03-21T10:34:56.914Z,22.54
2017-03-21T10:36:05.993Z,22.59
2017-03-21T10:37:14.758Z,22.55
2017-03-21T10:38:23.837Z,22.63
2017-03-21T10:39:33.160Z,22.62
2017-03-21T10:40:41.896Z,22.65
2017-03-21T10:41:50.653Z,22.65
2017-03-21T10:42:59.415Z,22.91
2017-03-21T10:44:08.487Z,22.93
2017-03-21T10:45:17.522Z,22.99
2017-03-21T10:46:26.252Z,22.94
2017-03-21T10:47:35.014Z,22.94
2017-03-21T10:48:43.742Z,22.98
2017-03-21T10:49:52.780Z,22.96
2017-03-21T10:51:01.500Z,22.96
2017-03-21T10:52:10.227Z,22.96
2017-03-21T10:53:18.995Z,22.76
2017-03-21T10:54:27.911Z,22.83
2017-03-21T10:55:36.668Z,22.81
2017-03-21T10:56:45.392Z,22.78
2017-03-21T10:57:54.130Z,22.68
2017-03-21T10:59:02.891Z,22.69
2017-03-21T11:00:11.647Z,22.75
2017-03-21T11:01:20.413Z,22.7
2017-03-21T11:02:29.491Z,22.81
2017-03-21T11:03:38.267Z,22.66
2017-03-21T11:04:47.335Z,22.68
2017-03-21T11:05:56.082Z,22.75
2017-03-21T11:07:04.847Z,22.66
2017-03-21T11:08:13.914Z,22.75
2017-03-21T11:09:22.684Z,22.78
2017-03-21T11:10:31.431Z,22.65
2017-03-21T11:11:40.163Z,22.7
2017-03-21T11:12:48.929Z,22.7
2017-03-21T11:13:58.040Z,22.76
2017-03-21T11:15:06.810Z,22.65
2017-03-21T11:16:15.576Z,22.75
2017-03-21T11:17:24.651Z,22.69
2017-03-21T11:18:34.278Z,22.76
2017-03-21T11:19:43.328Z,22.76
2017-03-21T11:20:52.401Z,22.68
2017-03-21T11:22:01.151Z,22.73
2017-03-21T11:23:10.224Z,22.7
2017-03-21T11:24:18.979Z,22.69
2017-03-21T11:25:28.299Z,22.7
2017-03-21T11:26:37.069Z,22.68
2017-03-21T11:27:45.828Z,22.73
2017-03-21T11:28:54.901Z,22.72
2017-03-21T11:30:03.973Z,22.72
2017-03-21T11:31:13.040Z,22.69
2017-03-21T11:32:22.448Z,22.69
2017-03-21T11:33:31.520Z,22.7
2017-03-21T11:34:40.558Z,22.62
2017-03-21T11:35:49.322Z,22.69
2017-03-21T11:36:58.090Z,22.7
2017-03-21T11:38:07.165Z,22.66
2017-03-21T11:39:15.927Z,22.69
2017-03-21T11:40:24.698Z,22.66
2017-03-21T11:41:33.761Z,22.62
2017-03-21T11:42:42.523Z,22.68
2017-03-21T11:43:51.290Z,22.62
2017-03-21T11:45:00.320Z,22.62
2017-03-21T11:46:09.346Z,22.7
2017-03-21T11:47:18.407Z,22.63
2017-03-21T11:48:27.667Z,22.62
2017-03-21T11:49:36.428Z,22.6
2017-03-21T11:50:45.193Z,22.66
2017-03-21T11:51:53.954Z,22.57
2017-03-21T11:53:02.717Z,22.6
2017-03-21T11:54:11.481Z,22.65
2017-03-21T11:55:20.509Z,22.62
2017-03-21T11:56:29.810Z,22.7
2017-03-21T11:57:38.538Z,22.72
2017-03-21T11:58:47.802Z,22.73
2017-03-21T11:59:57.077Z,22.76
2017-03-21T12:01:06.459Z,22.81
2017-03-21T12:02:15.222Z,22.94
2017-03-21T12:03:23.992Z,23
2017-03-21T12:04:33.015Z,23.02
2017-03-21T12:05:42.060Z,23.13
2017-03-21T12:06:50.788Z,23.18
2017-03-21T12:07:59.525Z,23.25
2017-03-21T12:09:09.098Z,23.2
2017-03-21T12:10:18.780Z,23.27
2017-03-21T12:11:27.563Z,23.34
2017-03-21T12:12:36.938Z,23.32
2017-03-21T12:13:46.307Z,23.36
2017-03-21T12:14:55.029Z,23.43
2017-03-21T12:16:03.764Z,23.44
2017-03-21T12:17:12.844Z,23.41
2017-03-21T12:18:21.606Z,23.51
2017-03-21T12:19:30.355Z,23.48
2017-03-21T12:20:39.083Z,23.4
2017-03-21T12:21:47.850Z,23.47
2017-03-21T12:22:56.914Z,23.55
2017-03-21T12:24:06.296Z,23.47
2017-03-21T12:25:15.058Z,23.48
2017-03-21T12:26:23.819Z,23.47
2017-03-21T12:27:32.889Z,23.62
2017-03-21T12:28:42.227Z,23.46
2017-03-21T12:29:51.876Z,23.47
2017-03-21T12:31:01.553Z,23.43
2017-03-21T12:32:10.327Z,23.43
2017-03-21T12:33:19.085Z,23.51
2017-03-21T12:34:28.761Z,23.48
2017-03-21T12:35:37.775Z,23.4
2017-03-21T12:36:46.847Z,23.43
2017-03-21T12:37:55.917Z,23.39
2017-03-21T12:39:04.939Z,23.32
2017-03-21T12:40:13.974Z,23.4
2017-03-21T12:41:23.041Z,23.39
2017-03-21T12:42:32.102Z,23.37
2017-03-21T12:43:41.172Z,23.41
2017-03-21T12:44:50.244Z,23.46
2017-03-21T12:45:59.313Z,23.43
2017-03-21T12:47:08.075Z,23.48
2017-03-21T12:48:17.107Z,23.4
2017-03-21T12:49:26.142Z,23.51
2017-03-21T12:50:34.900Z,23.43
2017-03-21T12:51:43.654Z,23.43
2017-03-21T12:52:52.717Z,23.41
2017-03-21T12:54:01.788Z,23.4
2017-03-21T12:55:10.856Z,23.44
2017-03-21T12:56:19.816Z,23.37
2017-03-21T12:57:28.587Z,23.39
2017-03-21T12:58:37.956Z,23.4
2017-03-21T12:59:46.726Z,23.43
2017-03-21T13:00:55.500Z,23.41
2017-03-21T13:02:04.568Z,23.44
2017-03-21T13:03:13.657Z,23.41
2017-03-21T13:04:22.425Z,23.4
2017-03-21T13:05:31.190Z,23.28
2017-03-21T13:06:40.248Z,23.47
2017-03-21T13:07:49.318Z,23.46
2017-03-21T13:08:58.075Z,23.41
2017-03-21T13:10:07.098Z,23.5
2017-03-21T13:11:16.135Z,23.54
2017-03-21T13:12:25.102Z,23.55
2017-03-21T13:13:33.828Z,23.55
2017-03-21T13:14:42.560Z,23.65
2017-03-21T13:15:51.630Z,23.54
2017-03-21T13:17:00.363Z,23.61
2017-03-21T13:18:09.103Z,23.66
2017-03-21T13:19:19.086Z,23.66
2017-03-21T13:20:29.069Z,23.61
2017-03-21T13:21:38.140Z,23.61
2017-03-21T13:22:47.471Z,23.59
2017-03-21T13:23:56.209Z,23.59
2017-03-21T13:25:04.976Z,23.71
2017-03-21T13:26:14.644Z,23.62
2017-03-21T13:27:24.018Z,23.65
2017-03-21T13:28:33.289Z,23.65
2017-03-21T13:29:42.053Z,23.66
2017-03-21T13:30:50.810Z,23.65
2017-03-21T13:32:00.143Z,23.61
2017-03-21T13:33:09.807Z,23.66
2017-03-21T13:34:18.872Z,23.66
2017-03-21T13:35:28.087Z,23.5
2017-03-21T13:36:37.140Z,23.55
2017-03-21T13:37:46.203Z,23.46
2017-03-21T13:38:55.227Z,23.41
2017-03-21T13:40:05.214Z,23.51
2017-03-21T13:41:14.281Z,23.44
2017-03-21T13:42:23.670Z,23.41
2017-03-21T13:43:32.736Z,23.34
2017-03-21T13:44:41.517Z,23.41
2017-03-21T13:45:50.589Z,23.31
2017-03-21T13:46:59.653Z,23.41
2017-03-21T13:48:08.415Z,23.27
2017-03-21T13:49:17.181Z,23.27
2017-03-21T13:50:26.139Z,23.32
2017-03-21T13:51:34.903Z,23.28
2017-03-21T13:52:43.975Z,23.24
2017-03-21T13:53:53.043Z,23.23
2017-03-21T13:55:02.068Z,23.21
2017-03-21T13:56:10.763Z,23.18
2017-03-21T13:57:20.112Z,23.2
2017-03-21T13:58:29.182Z,23.2
2017-03-21T13:59:37.902Z,23.18
2017-03-21T14:00:46.959Z,23.15
2017-03-21T14:01:55.694Z,23.13
2017-03-21T14:03:04.462Z,23.12
2017-03-21T14:04:13.526Z,23.1
2017-03-21T14:05:22.900Z,23.06
2017-03-21T14:06:31.923Z,23.08
2017-03-21T14:07:40.964Z,22.96
2017-03-21T14:08:50.335Z,23.03
2017-03-21T14:09:59.095Z,23.06
2017-03-21T14:11:08.162Z,23.05
2017-03-21T14:12:17.230Z,23
2017-03-21T14:13:25.986Z,23.02
2017-03-21T14:14:34.749Z,23.03
2017-03-21T14:15:43.817Z,23.05
2017-03-21T14:16:52.537Z,23
2017-03-21T14:18:01.274Z,23.08
2017-03-21T14:19:10.033Z,23.02
2017-03-21T14:20:18.793Z,23.02
2017-03-21T14:21:27.863Z,23.02
2017-03-21T14:22:36.631Z,23.08
2017-03-21T14:23:46.211Z,23.06
2017-03-21T14:24:55.287Z,23.13
2017-03-21T14:26:04.049Z,23.12
2017-03-21T14:27:13.121Z,23.13
2017-03-21T14:28:54.881Z,23.15
2017-03-21T14:30:03.994Z,23.1
2017-03-21T14:31:13.016Z,23.15
2017-03-21T14:32:22.054Z,23.21
2017-03-21T14:33:31.410Z,23.15
2017-03-21T14:34:40.716Z,23.13
2017-03-21T14:35:49.441Z,23.15
2017-03-21T14:36:58.205Z,23.2
2017-03-21T14:38:07.282Z,23.13
2017-03-21T14:39:16.648Z,23.1
2017-03-21T14:40:25.718Z,23.1
2017-03-21T14:41:34.653Z,23.1
2017-03-21T14:42:44.009Z,23.08
2017-03-21T14:43:53.086Z,23.08
2017-03-21T14:45:02.459Z,22.99
2017-03-21T14:46:11.530Z,23
2017-03-21T14:47:20.592Z,23.08
2017-03-21T14:48:29.659Z,23
2017-03-21T14:49:38.418Z,23.03
2017-03-21T14:50:47.481Z,23
2017-03-21T14:51:56.543Z,22.93
2017-03-21T14:53:05.459Z,23
2017-03-21T14:54:14.802Z,22.96
2017-03-21T14:55:23.571Z,23
2017-03-21T14:56:33.090Z,22.96